createdAt,value
2023-05-20T00:02:13.345Z,70.10
2023-05-20T00:04:42.301Z,69.71
2023-05-20T00:07:09.302Z,68.77
2023-05-20T00:09:36.152Z,69.36
2023-05-20T00:12:03.235Z,70.03
2023-05-20T00:14:30.112Z,69.52
2023-05-20T00:16:57.033Z,69.69
2023-05-20T00:19:24.112Z,69.46
2023-05-20T00:21:51.011Z,69.14
2023-05-20T00:24:17.866Z,69.01
2023-05-20T00:26:44.858Z,69.25
2023-05-20T00:29:11.794Z,69.06
2023-05-20T00:31:38.971Z,68.72
2023-05-20T00:34:05.973Z,69.09
2023-05-20T00:36:32.900Z,68.39
2023-05-20T00:38:59.779Z,68.60
2023-05-20T00:41:26.790Z,68.02
2023-05-20T00:43:55.118Z,68.63
2023-05-20T00:46:25.532Z,68.62
2023-05-20T00:48:52.859Z,68.73
2023-05-20T00:51:20.736Z,68.30
2023-05-20T00:53:47.877Z,68.90
2023-05-20T00:56:14.742Z,67.99
2023-05-20T00:58:41.827Z,68.07
2023-05-20T01:01:08.888Z,68.78
2023-05-20T01:03:36.026Z,68.75
2023-05-20T01:06:03.340Z,69.43
2023-05-20T01:08:30.271Z,68.43
2023-05-20T01:11:07.191Z,69.07
2023-05-20T01:13:39.788Z,69.41
2023-05-20T01:16:08.221Z,67.87
2023-05-20T01:18:36.104Z,68.88
2023-05-20T01:21:03.330Z,68.91
2023-05-20T01:23:40.926Z,69.59
2023-05-20T01:26:08.491Z,68.91
2023-05-20T01:28:36.929Z,69.44
2023-05-20T01:31:05.922Z,69.80
2023-05-20T01:33:36.612Z,70.10
2023-05-20T01:36:03.717Z,69.67
2023-05-20T01:38:31.275Z,68.44
2023-05-20T01:40:58.647Z,68.20
2023-05-20T01:43:27.096Z,68.96
2023-05-20T01:45:54.002Z,68.30
2023-05-20T01:48:20.958Z,69.96
2023-05-20T01:50:47.799Z,70.32
2023-05-20T01:53:14.812Z,69.76
2023-05-20T01:55:41.682Z,70.19
2023-05-20T01:58:08.548Z,70.29
2023-05-20T02:00:36.437Z,71.09
2023-05-20T02:03:03.896Z,69.50
2023-05-20T02:05:31.144Z,71.29
2023-05-20T02:07:58.197Z,70.67
2023-05-20T02:10:25.102Z,70.48
2023-05-20T02:12:52.073Z,70.65
2023-05-20T02:15:18.991Z,71.67
2023-05-20T02:17:47.282Z,72.08
2023-05-20T02:20:14.374Z,70.68
2023-05-20T02:22:41.284Z,72.43
2023-05-20T02:25:08.736Z,71.65
2023-05-20T02:27:35.690Z,71.54
2023-05-20T02:30:02.574Z,72.78
2023-05-20T02:32:29.782Z,72.07
2023-05-20T02:34:56.825Z,71.80
2023-05-20T02:37:23.767Z,73.19
2023-05-20T02:39:50.730Z,72.78
2023-05-20T02:42:17.606Z,72.41
2023-05-20T02:44:44.518Z,73.82
2023-05-20T02:47:11.730Z,74.25
2023-05-20T02:49:38.610Z,74.25
2023-05-20T02:52:05.706Z,73.92
2023-05-20T02:54:32.586Z,73.85
2023-05-20T02:56:59.408Z,74.40
2023-05-20T02:59:26.375Z,74.43
2023-05-20T03:01:53.254Z,74.05
2023-05-20T03:04:21.955Z,73.47
2023-05-20T03:06:48.860Z,74.35
2023-05-20T03:09:15.781Z,73.71
2023-05-20T03:11:42.665Z,73.34
2023-05-20T03:14:09.574Z,73.82
2023-05-20T03:16:36.734Z,72.81
2023-05-20T03:19:03.724Z,72.25
2023-05-20T03:21:30.576Z,74.16
2023-05-20T03:23:57.447Z,73.38
2023-05-20T03:26:25.881Z,73.71
2023-05-20T03:28:52.742Z,74.79
2023-05-20T03:31:19.732Z,74.49
2023-05-20T03:33:46.730Z,72.20
2023-05-20T03:36:13.625Z,73.27
2023-05-20T03:38:40.583Z,72.93
2023-05-20T03:41:07.515Z,74.12
2023-05-20T03:43:34.376Z,74.38
2023-05-20T03:46:01.219Z,73.78
2023-05-20T03:48:28.113Z,74.15
2023-05-20T03:50:54.956Z,74.54
2023-05-20T03:53:21.848Z,74.39
2023-05-20T03:55:48.762Z,72.88
2023-05-20T03:58:15.835Z,74.23
2023-05-20T04:00:42.782Z,75.07
2023-05-20T04:03:10.788Z,73.76
2023-05-20T04:05:37.896Z,73.62
2023-05-20T04:08:05.360Z,73.25
2023-05-20T04:10:33.934Z,73.74
2023-05-20T04:13:00.888Z,74.79
2023-05-20T04:15:29.898Z,74.47
2023-05-20T04:17:56.927Z,74.52
2023-05-20T04:20:24.701Z,73.86
2023-05-20T04:22:52.565Z,74.36
2023-05-20T04:25:19.555Z,72.89
2023-05-20T04:27:46.675Z,73.30
2023-05-20T04:30:14.130Z,74.49
2023-05-20T04:32:41.838Z,74.22
2023-05-20T04:35:12.230Z,74.50
2023-05-20T04:37:39.339Z,75.17
2023-05-20T04:40:09.634Z,75.46
2023-05-20T04:42:37.957Z,75.02
2023-05-20T04:45:06.138Z,76.43
2023-05-20T04:47:39.312Z,76.59
2023-05-20T04:50:10.873Z,76.16
2023-05-20T04:52:40.337Z,76.40
2023-05-20T04:55:10.571Z,76.56
2023-05-20T04:57:42.633Z,77.22
2023-05-20T05:00:11.423Z,77.28
2023-05-20T05:02:38.694Z,78.01
2023-05-20T05:05:06.320Z,78.12
2023-05-20T05:07:33.463Z,76.72
2023-05-20T05:10:00.378Z,77.10
2023-05-20T05:12:27.274Z,78.05
2023-05-20T05:14:54.153Z,77.64
2023-05-20T05:17:21.053Z,77.93
2023-05-20T05:19:47.985Z,77.76
2023-05-20T05:22:14.910Z,77.90
2023-05-20T05:24:41.880Z,78.40
2023-05-20T05:27:08.807Z,77.91
2023-05-20T05:29:35.728Z,79.44
2023-05-20T05:32:02.678Z,79.45
2023-05-20T05:34:29.629Z,79.80
2023-05-20T05:36:56.520Z,79.71
2023-05-20T05:39:23.409Z,78.63
2023-05-20T05:41:50.361Z,80.04
2023-05-20T05:44:17.233Z,79.31
2023-05-20T05:46:44.114Z,79.96
2023-05-20T05:49:11.144Z,78.08
2023-05-20T05:51:39.083Z,79.02
2023-05-20T05:54:06.114Z,77.58
2023-05-20T05:56:33.009Z,78.23
2023-05-20T05:58:59.879Z,77.86
2023-05-20T06:01:26.835Z,76.76
2023-05-20T06:03:54.244Z,79.11
2023-05-20T06:06:21.230Z,77.75
2023-05-20T06:08:48.145Z,79.26
2023-05-20T06:11:15.009Z,78.13
2023-05-20T06:13:41.883Z,77.62
2023-05-20T06:16:08.867Z,77.74
2023-05-20T06:18:35.778Z,77.81
2023-05-20T06:21:03.428Z,79.00
2023-05-20T06:23:30.777Z,77.35
2023-05-20T06:26:01.042Z,78.24
2023-05-20T06:28:28.262Z,78.61
2023-05-20T06:30:55.861Z,78.91
2023-05-20T06:33:26.374Z,78.44
2023-05-20T06:35:56.663Z,78.19
2023-05-20T06:38:23.595Z,79.14
2023-05-20T06:40:51.552Z,78.60
2023-05-20T06:43:18.964Z,78.35
2023-05-20T06:45:45.951Z,77.98
2023-05-20T06:48:12.846Z,77.60
2023-05-20T06:50:39.752Z,76.63
2023-05-20T06:53:06.763Z,76.96
2023-05-20T06:55:33.803Z,76.44
2023-05-20T06:58:00.905Z,76.66
2023-05-20T07:00:27.791Z,77.02
2023-05-20T07:02:54.722Z,76.69
2023-05-20T07:05:21.572Z,76.10
2023-05-20T07:07:48.437Z,76.10
2023-05-20T07:10:15.379Z,75.32
2023-05-20T07:12:42.333Z,75.36
2023-05-20T07:15:09.561Z,75.33
2023-05-20T07:17:36.542Z,74.76
2023-05-20T07:20:04.449Z,74.71
2023-05-20T07:22:31.424Z,74.86
2023-05-20T07:24:59.582Z,74.64
2023-05-20T07:27:26.422Z,74.71
2023-05-20T07:29:53.372Z,73.59
2023-05-20T07:32:20.360Z,73.15
2023-05-20T07:34:47.334Z,73.69
2023-05-20T07:37:14.956Z,73.52
2023-05-20T07:39:41.845Z,72.52
2023-05-20T07:42:08.757Z,72.37
2023-05-20T07:44:35.625Z,72.47
2023-05-20T07:47:03.009Z,72.29
2023-05-20T07:49:30.144Z,72.41
2023-05-20T07:51:57.186Z,72.44
2023-05-20T07:54:24.229Z,72.36
2023-05-20T07:56:51.120Z,71.82
2023-05-20T07:59:18.015Z,71.58
2023-05-20T08:01:44.913Z,71.56
2023-05-20T08:04:11.930Z,71.19
2023-05-20T08:06:39.946Z,71.03
2023-05-20T08:09:07.593Z,70.61
2023-05-20T08:11:34.480Z,70.62
2023-05-20T08:14:02.287Z,70.53
2023-05-20T08:16:29.309Z,70.67
2023-05-20T08:18:56.217Z,70.51
2023-05-20T08:21:23.142Z,70.45
2023-05-20T08:23:50.286Z,69.80
2023-05-20T08:26:17.149Z,69.86
2023-05-20T08:28:44.171Z,69.99
2023-05-20T08:31:11.089Z,69.45
2023-05-20T08:33:38.083Z,69.67
2023-05-20T08:36:05.099Z,69.57
2023-05-20T08:38:31.961Z,69.91
2023-05-20T08:40:58.843Z,69.22
2023-05-20T08:43:26.231Z,69.25
2023-05-20T08:45:53.308Z,69.12
2023-05-20T08:48:20.859Z,68.56
2023-05-20T08:50:52.972Z,69.79
2023-05-20T08:53:21.227Z,67.90
2023-05-20T08:55:55.312Z,69.44
2023-05-20T08:58:23.601Z,67.29
2023-05-20T09:00:53.357Z,66.62
2023-05-20T09:03:24.154Z,67.09
2023-05-20T09:05:50.995Z,66.65
2023-05-20T09:08:17.916Z,66.32
2023-05-20T09:10:44.835Z,65.65
2023-05-20T09:13:12.246Z,66.29
2023-05-20T09:15:39.402Z,65.42
2023-05-20T09:18:07.637Z,66.10
2023-05-20T09:20:37.541Z,66.92
2023-05-20T09:23:06.577Z,64.74
2023-05-20T09:25:34.141Z,64.01
2023-05-20T09:28:01.274Z,63.84
2023-05-20T09:30:28.254Z,63.75
2023-05-20T09:32:56.581Z,63.21
2023-05-20T09:35:24.315Z,62.69
2023-05-20T09:37:56.227Z,60.54
2023-05-20T09:40:26.389Z,61.65
2023-05-20T09:42:54.056Z,62.58
2023-05-20T09:45:24.890Z,62.27
2023-05-20T09:47:53.480Z,61.37
2023-05-20T09:50:21.853Z,59.58
2023-05-20T09:52:50.006Z,60.08
2023-05-20T09:55:18.189Z,59.84
2023-05-20T09:57:46.709Z,60.98
2023-05-20T10:00:15.800Z,60.94
2023-05-20T10:02:47.809Z,60.22
2023-05-20T10:05:18.830Z,60.62
2023-05-20T10:07:49.907Z,60.68
2023-05-20T10:10:26.515Z,59.37
2023-05-20T10:13:04.181Z,58.94
2023-05-20T10:16:05.769Z,59.35
2023-05-20T10:18:53.834Z,59.86
2023-05-20T10:21:26.265Z,58.25
2023-05-20T10:23:53.216Z,59.67
2023-05-20T10:26:20.865Z,59.81
2023-05-20T10:28:47.797Z,59.28
2023-05-20T10:31:21.973Z,59.83
2023-05-20T10:33:49.414Z,59.43
2023-05-20T10:36:45.224Z,59.34
2023-05-20T10:39:17.024Z,58.87
2023-05-20T10:41:43.933Z,58.57
2023-05-20T10:44:10.885Z,58.31
2023-05-20T10:46:53.794Z,58.29
2023-05-20T10:49:27.434Z,58.37
2023-05-20T10:51:54.976Z,57.94
2023-05-20T10:54:23.250Z,58.30
2023-05-20T10:56:54.129Z,56.15
2023-05-20T10:59:22.228Z,57.26
2023-05-20T11:01:49.522Z,57.49
2023-05-20T11:04:17.638Z,57.29
2023-05-20T11:06:53.726Z,57.43
2023-05-20T11:09:20.775Z,57.35
2023-05-20T11:11:47.820Z,56.60
2023-05-20T11:14:15.290Z,57.28
2023-05-20T11:16:43.045Z,56.01
2023-05-20T11:19:19.160Z,56.17
2023-05-20T11:21:47.145Z,56.29
2023-05-20T11:24:14.582Z,56.61
2023-05-20T11:26:41.555Z,55.94
2023-05-20T11:29:08.541Z,55.59
2023-05-20T11:31:38.318Z,55.50
2023-05-20T11:34:05.381Z,56.30
2023-05-20T11:36:32.679Z,56.14
2023-05-20T11:39:00.454Z,55.80
2023-05-20T11:41:28.046Z,54.49
2023-05-20T11:43:59.440Z,54.59
2023-05-20T11:46:27.428Z,53.30
2023-05-20T11:48:55.265Z,52.87
2023-05-20T11:51:27.735Z,52.76
2023-05-20T11:54:00.505Z,52.03
2023-05-20T11:56:33.440Z,52.50
2023-05-20T11:59:01.490Z,52.00
2023-05-20T12:01:31.278Z,51.28
2023-05-20T12:03:58.347Z,50.35
2023-05-20T12:06:25.387Z,50.65
2023-05-20T12:08:52.267Z,50.44
2023-05-20T12:11:19.200Z,49.72
2023-05-20T12:13:46.190Z,50.62
2023-05-20T12:16:13.245Z,50.39
2023-05-20T12:18:40.183Z,50.45
2023-05-20T12:21:07.055Z,50.59
2023-05-20T12:23:34.486Z,50.49
2023-05-20T12:26:01.589Z,50.72
2023-05-20T12:28:28.405Z,51.15
2023-05-20T12:30:55.289Z,50.56
2023-05-20T12:33:22.433Z,49.35
2023-05-20T12:35:49.381Z,49.45
2023-05-20T12:38:16.269Z,49.67
2023-05-20T12:40:43.172Z,50.00
2023-05-20T12:43:10.378Z,50.22
2023-05-20T12:45:37.325Z,50.30
2023-05-20T12:48:06.214Z,50.24
2023-05-20T12:50:33.362Z,50.00
2023-05-20T12:53:00.366Z,50.13
2023-05-20T12:55:27.607Z,49.20
2023-05-20T12:57:56.396Z,48.91
2023-05-20T13:00:23.369Z,49.06
2023-05-20T13:02:50.615Z,49.04
2023-05-20T13:05:17.594Z,49.60
2023-05-20T13:07:44.810Z,48.97
2023-05-20T13:10:11.952Z,48.90
2023-05-20T13:12:38.894Z,49.34
2023-05-20T13:15:06.387Z,48.95
2023-05-20T13:17:33.304Z,48.40
2023-05-20T13:20:00.314Z,47.92
2023-05-20T13:22:27.184Z,48.96
2023-05-20T13:24:54.025Z,48.69
2023-05-20T13:27:20.907Z,48.83
2023-05-20T13:29:47.745Z,48.25
2023-05-20T13:32:14.638Z,48.46
2023-05-20T13:34:41.598Z,47.70
2023-05-20T13:37:08.582Z,48.01
2023-05-20T13:39:36.547Z,47.91
2023-05-20T13:42:04.621Z,47.92
2023-05-20T13:44:32.642Z,47.51
2023-05-20T13:46:59.941Z,47.57
2023-05-20T13:49:26.975Z,47.75
2023-05-20T13:51:53.852Z,47.66
2023-05-20T13:54:21.779Z,47.63
2023-05-20T13:56:48.932Z,47.80
2023-05-20T13:59:16.036Z,47.81
2023-05-20T14:01:45.444Z,48.16
2023-05-20T14:04:13.002Z,49.00
2023-05-20T14:06:40.793Z,48.81
2023-05-20T14:09:11.050Z,48.43
2023-05-20T14:11:37.995Z,48.07
2023-05-20T14:14:04.977Z,47.61
2023-05-20T14:16:32.992Z,46.16
2023-05-20T14:19:00.027Z,45.63
2023-05-20T14:21:26.934Z,45.88
2023-05-20T14:23:53.956Z,45.78
2023-05-20T14:26:21.909Z,45.75
2023-05-20T14:28:48.868Z,45.79
2023-05-20T14:31:16.151Z,45.93
2023-05-20T14:33:43.133Z,45.98
2023-05-20T14:36:10.709Z,46.62
2023-05-20T14:38:37.666Z,46.34
2023-05-20T14:41:04.638Z,46.28
2023-05-20T14:43:32.393Z,46.28
2023-05-20T14:45:59.352Z,46.98
2023-05-20T14:48:26.317Z,46.82
2023-05-20T14:50:53.419Z,46.79
2023-05-20T14:53:20.562Z,47.23
2023-05-20T14:55:47.379Z,46.89
2023-05-20T14:58:14.350Z,46.50
2023-05-20T15:00:42.465Z,46.81
2023-05-20T15:03:09.543Z,46.54
2023-05-20T15:05:36.709Z,46.63
2023-05-20T15:08:04.012Z,46.46
2023-05-20T15:10:30.867Z,46.31
2023-05-20T15:12:57.730Z,46.84
2023-05-20T15:15:24.603Z,46.73
2023-05-20T15:17:51.558Z,46.35
2023-05-20T15:20:18.507Z,46.12
2023-05-20T15:22:48.512Z,46.52
2023-05-20T15:25:15.587Z,46.81
2023-05-20T15:27:43.006Z,46.72
2023-05-20T15:30:10.537Z,46.23
2023-05-20T15:32:37.589Z,45.94
2023-05-20T15:35:04.977Z,45.60
2023-05-20T15:37:31.851Z,45.65
2023-05-20T15:39:58.802Z,45.24
2023-05-20T15:42:25.796Z,45.22
2023-05-20T15:44:52.865Z,45.78
2023-05-20T15:47:19.741Z,45.51
2023-05-20T15:49:46.735Z,45.11
2023-05-20T15:52:14.270Z,45.58
2023-05-20T15:54:41.318Z,45.56
2023-05-20T15:57:08.228Z,45.78
2023-05-20T15:59:35.157Z,45.27
2023-05-20T16:02:02.071Z,45.38
2023-05-20T16:04:29.229Z,46.07
2023-05-20T16:06:56.156Z,45.81
2023-05-20T16:09:22.962Z,44.53
2023-05-20T16:11:49.872Z,44.65
2023-05-20T16:14:16.831Z,44.94
2023-05-20T16:16:43.754Z,45.58
2023-05-20T16:19:10.651Z,45.53
2023-05-20T16:21:37.586Z,45.94
2023-05-20T16:24:04.857Z,46.25
2023-05-20T16:26:31.755Z,46.66
2023-05-20T16:28:58.625Z,46.65
2023-05-20T16:31:26.792Z,46.56
2023-05-20T16:33:53.785Z,46.46
2023-05-20T16:36:21.732Z,46.87
2023-05-20T16:38:48.623Z,46.28
2023-05-20T16:41:16.412Z,46.06
2023-05-20T16:43:43.408Z,45.86
2023-05-20T16:46:10.453Z,46.08
2023-05-20T16:48:37.365Z,46.40
2023-05-20T16:51:04.463Z,46.17
2023-05-20T16:53:31.452Z,46.65
2023-05-20T16:55:58.422Z,46.76
2023-05-20T16:58:25.324Z,46.06
2023-05-20T17:00:52.313Z,46.10
2023-05-20T17:03:19.490Z,45.63
2023-05-20T17:05:46.596Z,45.91
2023-05-20T17:08:13.522Z,45.02
2023-05-20T17:10:40.409Z,44.91
2023-05-20T17:13:07.238Z,45.85
2023-05-20T17:15:37.262Z,46.25
2023-05-20T17:18:04.285Z,45.17
2023-05-20T17:20:31.643Z,45.86
2023-05-20T17:22:58.721Z,45.98
2023-05-20T17:25:25.676Z,45.51
2023-05-20T17:27:52.576Z,45.47
2023-05-20T17:30:19.607Z,45.43
2023-05-20T17:32:46.543Z,47.38
2023-05-20T17:35:13.456Z,48.13
2023-05-20T17:37:40.403Z,48.50
2023-05-20T17:40:07.808Z,48.79
2023-05-20T17:42:34.672Z,49.09
2023-05-20T17:45:01.597Z,49.57
2023-05-20T17:47:28.437Z,49.71
2023-05-20T17:49:55.328Z,49.94
2023-05-20T17:52:22.300Z,50.39
2023-05-20T17:54:49.191Z,50.57
2023-05-20T17:57:16.489Z,50.63
2023-05-20T17:59:45.642Z,50.21
2023-05-20T18:02:12.714Z,51.10
2023-05-20T18:04:39.602Z,51.61
2023-05-20T18:07:07.690Z,51.11
2023-05-20T18:09:34.582Z,52.40
2023-05-20T18:12:01.400Z,51.46
2023-05-20T18:14:28.279Z,52.23
2023-05-20T18:16:55.148Z,52.36
2023-05-20T18:19:22.056Z,52.84
2023-05-20T18:21:49.032Z,52.00
2023-05-20T18:24:16.955Z,52.22
2023-05-20T18:26:44.024Z,52.76
2023-05-20T18:29:12.522Z,53.25
2023-05-20T18:31:41.351Z,52.81
2023-05-20T18:34:09.517Z,52.93
2023-05-20T18:36:37.486Z,53.14
2023-05-20T18:39:05.065Z,53.03
2023-05-20T18:41:45.938Z,53.05
2023-05-20T18:44:14.875Z,52.96
2023-05-20T18:46:42.055Z,53.23
2023-05-20T18:49:10.820Z,53.60
2023-05-20T18:51:41.052Z,53.70
2023-05-20T18:54:08.451Z,53.80
2023-05-20T18:56:35.963Z,53.74
2023-05-20T18:59:03.041Z,54.23
2023-05-20T19:01:30.153Z,53.74
2023-05-20T19:03:57.193Z,54.47
2023-05-20T19:06:24.103Z,54.86
2023-05-20T19:08:51.113Z,55.24
2023-05-20T19:11:18.162Z,55.38
2023-05-20T19:13:45.012Z,55.29
2023-05-20T19:16:11.904Z,55.65
2023-05-20T19:18:38.988Z,56.54
2023-05-20T19:21:06.046Z,55.65
2023-05-20T19:23:32.938Z,56.55
2023-05-20T19:25:59.900Z,55.90
2023-05-20T19:28:26.885Z,56.81
2023-05-20T19:30:54.008Z,56.67
2023-05-20T19:33:21.618Z,57.41
2023-05-20T19:35:48.715Z,57.45
2023-05-20T19:38:15.865Z,57.64
2023-05-20T19:40:44.287Z,58.40
2023-05-20T19:43:11.466Z,57.86
2023-05-20T19:45:38.566Z,57.97
2023-05-20T19:48:06.221Z,59.40
2023-05-20T19:50:33.577Z,59.53
2023-05-20T19:53:01.679Z,59.37
2023-05-20T19:55:28.684Z,60.26
2023-05-20T19:57:55.883Z,60.56
2023-05-20T20:00:23.029Z,60.28
2023-05-20T20:02:50.158Z,60.40
2023-05-20T20:05:17.336Z,60.63
2023-05-20T20:07:44.307Z,60.50
2023-05-20T20:10:11.581Z,61.48
2023-05-20T20:12:38.496Z,62.25
2023-05-20T20:15:05.891Z,63.14
2023-05-20T20:17:33.996Z,63.14
2023-05-20T20:20:01.357Z,62.86
2023-05-20T20:22:28.256Z,63.15
2023-05-20T20:24:55.303Z,63.26
2023-05-20T20:27:24.049Z,62.59
2023-05-20T20:29:51.512Z,63.51
2023-05-20T20:32:18.745Z,63.89
2023-05-20T20:34:46.256Z,63.44
2023-05-20T20:37:15.336Z,63.47
2023-05-20T20:39:43.112Z,63.80
2023-05-20T20:42:10.803Z,63.55
2023-05-20T20:44:37.708Z,63.96
2023-05-20T20:47:05.329Z,64.98
2023-05-20T20:49:32.404Z,66.01
2023-05-20T20:51:59.643Z,65.27
2023-05-20T20:54:26.636Z,65.92
2023-05-20T20:56:56.835Z,65.48
2023-05-20T20:59:26.703Z,66.38
2023-05-20T21:01:54.244Z,66.04
2023-05-20T21:04:21.325Z,65.89
2023-05-20T21:06:48.307Z,67.09
2023-05-20T21:09:15.451Z,67.61
2023-05-20T21:11:42.678Z,67.51
2023-05-20T21:14:10.528Z,66.86
2023-05-20T21:16:37.507Z,66.24
2023-05-20T21:19:04.905Z,65.92
2023-05-20T21:21:31.961Z,66.38
2023-05-20T21:23:59.029Z,67.21
2023-05-20T21:26:26.744Z,67.89
2023-05-20T21:28:53.601Z,67.88
2023-05-20T21:31:20.658Z,68.13
2023-05-20T21:33:47.664Z,67.08
2023-05-20T21:36:14.619Z,67.37
2023-05-20T21:38:41.580Z,68.08
2023-05-20T21:41:08.882Z,67.85
2023-05-20T21:43:37.274Z,67.83
2023-05-20T21:46:04.277Z,67.98
2023-05-20T21:48:31.156Z,68.58
2023-05-20T21:50:58.072Z,68.54
2023-05-20T21:53:25.029Z,68.75
2023-05-20T21:55:52.094Z,67.88
2023-05-20T21:58:18.996Z,68.43
2023-05-20T22:00:46.186Z,68.10
2023-05-20T22:03:13.317Z,68.41
2023-05-20T22:05:41.381Z,68.58
2023-05-20T22:08:08.595Z,68.22
2023-05-20T22:10:36.714Z,67.99
2023-05-20T22:13:03.622Z,67.30
2023-05-20T22:15:31.047Z,69.23
2023-05-20T22:17:58.834Z,67.85
2023-05-20T22:20:25.929Z,68.28
2023-05-20T22:22:52.803Z,68.26
2023-05-20T22:25:19.858Z,68.42
2023-05-20T22:27:47.269Z,69.02
2023-05-20T22:30:14.250Z,69.09
2023-05-20T22:32:41.479Z,68.28
2023-05-20T22:35:09.191Z,68.58
2023-05-20T22:37:36.187Z,68.47
2023-05-20T22:40:04.124Z,69.63
2023-05-20T22:42:30.998Z,70.23
2023-05-20T22:44:57.879Z,68.17
2023-05-20T22:47:24.903Z,67.90
2023-05-20T22:49:51.929Z,68.84
2023-05-20T22:52:18.872Z,69.80
2023-05-20T22:54:45.809Z,69.25
2023-05-20T22:57:12.930Z,69.20
2023-05-20T22:59:40.535Z,69.08
2023-05-20T23:02:08.050Z,69.08
2023-05-20T23:04:35.067Z,69.13
2023-05-20T23:07:01.919Z,68.48
2023-05-20T23:09:28.797Z,69.24
2023-05-20T23:11:55.731Z,69.00
2023-05-20T23:14:24.147Z,68.84
2023-05-20T23:16:51.277Z,68.64
2023-05-20T23:19:18.225Z,67.99
2023-05-20T23:21:45.282Z,68.00
2023-05-20T23:24:12.161Z,68.54
2023-05-20T23:26:39.231Z,68.92
2023-05-20T23:29:06.511Z,69.14
2023-05-20T23:31:33.922Z,69.27
2023-05-20T23:34:03.850Z,68.70
2023-05-20T23:36:35.477Z,68.54
2023-05-20T23:39:02.997Z,69.08
2023-05-20T23:41:29.882Z,68.29
2023-05-20T23:43:56.774Z,69.11
2023-05-20T23:46:23.710Z,68.79
2023-05-20T23:48:50.673Z,69.35
2023-05-20T23:51:17.732Z,69.44
2023-05-20T23:53:45.174Z,69.32
2023-05-20T23:56:12.083Z,69.41
2023-05-20T23:58:39.012Z,69.48
